^^
Datos históricos de la estación: Murcia-Puente Tocinos
Diario Informe para Mayo 18, 2019 Unidades:  Inglés    Métrico   Ambas
Diario Semanal Mensual Anual Configurable
  Máximo: Mínimo: Media:
Temperatura: 74.7 °F 59.7 °F 67.5 °F
Punto de rocio: 57 °F 36.9 °F 44.8 °F
Humedad: 80% 26% 46%
Velocidad viento: 9.7mph 0mph 4.4mph
Racha viento: 18.4mph - -
Viento- - SSE
Presión: 29.8 in 29.7 in -
Precipitación: 0 in    
Historical Graphs
 
 
Tabla de datos para Mayo 18, 2019
Hora Temperatura Punto de rocio Presión Viento Velocidad viento Racha viento Humedad Intensidad lluvia(por hora) Nubes
00:04 69.1 °F 39.6 °F 29.8 in ENE 2.4 mph 3.5 mph 34% 0 in CLR
00:09 68.9 °F 40.1 °F 29.8 in ENE 2.4 mph 3.1 mph 35% 0 in CLR
00:14 68.9 °F 39.4 °F 29.8 in NE 2.4 mph 2.4 mph 34% 0 in CLR
00:19 69.1 °F 39.6 °F 29.8 in NE 2 mph 2.3 mph 34% 0 in CLR
00:24 69.1 °F 40.3 °F 29.8 in NE 2 mph 2.3 mph 35% 0 in CLR
00:29 68.9 °F 40.8 °F 29.8 in Calm     36% 0 in CLR
00:34 68.7 °F 39.9 °F 29.8 in Calm     35% 0 in CLR
00:39 68.7 °F 40.6 °F 29.8 in Calm   1.2 mph 36% 0 in CLR
00:44 68.5 °F 40.5 °F 29.8 in Calm   2.9 mph 36% 0 in CLR
00:49 68.5 °F 39.7 °F 29.8 in NE 1.4 mph 3.5 mph 35% 0 in CLR
00:54 68.5 °F 39.7 °F 29.8 in NE 1.4 mph 3.5 mph 35% 0 in CLR
00:59 68.5 °F 39.7 °F 29.8 in NE 2 mph 2.4 mph 35% 0 in CLR
01:04 68.7 °F 40.6 °F 29.8 in NE 2 mph 2.3 mph 36% 0 in CLR
01:09 68.7 °F 40.6 °F 29.8 in NE 1.8 mph   36% 0 in CLR
01:14 68.7 °F 39.9 °F 29.8 in NE 1.8 mph 2.3 mph 35% 0 in CLR
01:19 68.7 °F 40.6 °F 29.8 in NE 1.4 mph 2.3 mph 36% 0 in CLR
01:24 68.7 °F 40.6 °F 29.8 in NE 1.4 mph 2.3 mph 36% 0 in CLR
01:29 68.7 °F 41.4 °F 29.8 in NE 1.4 mph 2.3 mph 37% 0 in CLR
01:34 68.5 °F 41.2 °F 29.8 in WSW 1.4 mph 4.3 mph 37% 0 in CLR
01:39 68.4 °F 41.2 °F 29.8 in WNW 2.4 mph 3.5 mph 37% 0 in CLR
01:44 68.4 °F 41.2 °F 29.8 in WNW 2.4 mph 2.3 mph 37% 0 in CLR
01:49 68.2 °F 41.5 °F 29.8 in WNW 1.4 mph   38% 0 in CLR
01:54 67.8 °F 42.6 °F 29.8 in East 1.4 mph 4.6 mph 40% 0 in CLR
01:59 67.3 °F 42.8 °F 29.8 in East 1.8 mph 2.3 mph 41% 0 in CLR
02:04 66.7 °F 43 °F 29.8 in East 1.8 mph 2.3 mph 42% 0 in CLR
02:09 66.6 °F 42.6 °F 29.8 in Calm   2.3 mph 42% 0 in CLR
02:14 66.4 °F 42.6 °F 29.8 in Calm   2.3 mph 42% 0 in CLR
02:19 66.4 °F 43.2 °F 29.8 in Calm     43% 0 in CLR
02:24 66.4 °F 42.6 °F 29.8 in Calm   3.1 mph 42% 0 in CLR
02:29 66.6 °F 42.1 °F 29.8 in SSE 1.8 mph 6.9 mph 41% 0 in CLR
02:34 65.7 °F 43.2 °F 29.8 in SSE 1.8 mph 8.1 mph 44% 0 in CLR
02:39 64.9 °F 41.9 °F 29.8 in South 5.9 mph 5.8 mph 43% 0 in CLR
02:44 64.9 °F 41.4 °F 29.8 in South 5.9 mph 5.8 mph 42% 0 in CLR
02:49 64.9 °F 41.4 °F 29.7 in SSW 4.3 mph 5.8 mph 42% 0 in CLR
02:54 65.1 °F 41.4 °F 29.7 in SW 4.3 mph 4.6 mph 42% 0 in CLR
02:59 65.1 °F 40.8 °F 29.7 in WSW 3.1 mph 4.6 mph 41% 0 in CLR
03:04 65.3 °F 41 °F 29.7 in West 3.1 mph 4.6 mph 41% 0 in CLR
03:09 65.5 °F 41.2 °F 29.7 in West 3.6 mph 4.6 mph 41% 0 in CLR
03:14 65.3 °F 41 °F 29.7 in ESE 3.6 mph 4.7 mph 41% 0 in CLR
03:19 64.8 °F 42.3 °F 29.7 in SE 2.9 mph 5.8 mph 44% 0 in CLR
03:24 64.2 °F 41.7 °F 29.7 in SSE 2.9 mph 4.6 mph 44% 0 in CLR
03:29 64 °F 41.7 °F 29.7 in SSE 3.1 mph 4.6 mph 44% 0 in CLR
03:34 64 °F 42.3 °F 29.7 in SSW 3.1 mph 4.6 mph 45% 0 in CLR
03:39 64 °F 41.7 °F 29.7 in SSW 3.1 mph 4.6 mph 44% 0 in CLR
03:44 64 °F 41.7 °F 29.7 in SSW 3.1 mph 4.6 mph 44% 0 in CLR
03:49 64 °F 41.7 °F 29.7 in SSW 2.4 mph 2.9 mph 44% 0 in CLR
03:54 64 °F 41.7 °F 29.7 in SSE 2.4 mph 5.2 mph 44% 0 in CLR
03:59 63.9 °F 40.8 °F 29.7 in SW 3.6 mph 8.1 mph 43% 0 in CLR
04:04 64 °F 40.5 °F 29.7 in SW 3.6 mph 4.6 mph 42% 0 in CLR
04:09 64 °F 40.5 °F 29.7 in SSW 4 mph 4.6 mph 42% 0 in CLR
04:14 64 °F 39.7 °F 29.7 in SSW 4 mph 2.3 mph 41% 0 in CLR
04:19 64.2 °F 39.9 °F 29.7 in NW 2.4 mph 4.6 mph 41% 0 in CLR
04:24 64 °F 41.2 °F 29.7 in NW 2.4 mph   43% 0 in CLR
04:29 63.9 °F 42.1 °F 29.7 in SE 1.4 mph 4.7 mph 45% 0 in CLR
04:34 63 °F 42.4 °F 29.7 in SE 1.4 mph 4.7 mph 47% 0 in CLR
04:39 62.1 °F 42.1 °F 29.7 in South 3.6 mph 5.9 mph 48% 0 in CLR
04:44 61.5 °F 41.5 °F 29.7 in SSE 3.6 mph 5.8 mph 48% 0 in CLR
04:49 61.5 °F 41.2 °F 29.7 in SSE 4 mph 4.7 mph 47% 0 in CLR
04:54 62.1 °F 41.5 °F 29.7 in South 4 mph 4.6 mph 47% 0 in CLR
04:59 62.1 °F 41 °F 29.7 in South 2.9 mph 3.5 mph 46% 0 in CLR
05:04 62.2 °F 41.7 °F 29.7 in South 2.9 mph 3.5 mph 47% 0 in CLR
05:09 62.1 °F 41.5 °F 29.7 in South 2.4 mph 2.3 mph 47% 0 in CLR
05:14 62.1 °F 42.1 °F 29.7 in South 2.4 mph   48% 0 in CLR
05:19 62.1 °F 41.5 °F 29.7 in Calm   1.8 mph 47% 0 in CLR
05:24 62.1 °F 41.5 °F 29.7 in Calm   2.3 mph 47% 0 in CLR
05:29 62.4 °F 41.9 °F 29.7 in South 1.8 mph 2.3 mph 47% 0 in CLR
05:34 62.4 °F 42.4 °F 29.7 in South 1.8 mph   48% 0 in CLR
05:39 62.4 °F 42.4 °F 29.7 in South 1.4 mph 2.3 mph 48% 0 in CLR
05:44 62.4 °F 42.4 °F 29.7 in South 1.4 mph   48% 0 in CLR
05:49 62.2 °F 41.2 °F 29.7 in Calm     46% 0 in CLR
05:54 62.2 °F 42.3 °F 29.7 in Calm   2.3 mph 48% 0 in CLR
05:59 62.1 °F 42.1 °F 29.7 in WSW 1.4 mph 2.3 mph 48% 0 in CLR
06:04 61.9 °F 42.1 °F 29.7 in WSW 1.4 mph 2.3 mph 48% 0 in CLR
06:09 61.5 °F 42.3 °F 29.7 in WSW 1.4 mph   49% 0 in CLR
06:14 61.5 °F 42.6 °F 29.7 in WSW 1.4 mph   50% 0 in CLR
06:19 61.3 °F 42.4 °F 29.7 in Calm   2.4 mph 50% 0 in CLR
06:24 61.2 °F 41.7 °F 29.7 in Calm     49% 0 in CLR
06:29 61.2 °F 41.4 °F 29.7 in WSW 1.4 mph 2.3 mph 48% 0 in CLR
06:34 61 °F 41.7 °F 29.7 in WSW 1.4 mph 1.8 mph 49% 0 in CLR
06:39 60.8 °F 41.5 °F 29.7 in Calm     49% 0 in CLR
06:44 60.8 °F 42.4 °F 29.7 in Calm   2.3 mph 51% 0 in CLR
06:49 60.6 °F 42.4 °F 29.7 in Calm   4.6 mph 51% 0 in CLR
06:54 60.3 °F 42.1 °F 29.7 in Calm     51% 0 in CLR
06:59 60.1 °F 41.9 °F 29.7 in NNW 1.4 mph 2.3 mph 51% 0 in CLR
07:04 60.1 °F 41.4 °F 29.7 in East 1.4 mph 4.6 mph 50% 0 in CLR
07:09 59.9 °F 40.6 °F 29.7 in ESE 2 mph 4.6 mph 49% 0 in CLR
07:14 59.7 °F 40.5 °F 29.7 in SE 2 mph 4.6 mph 49% 0 in CLR
07:19 59.7 °F 41 °F 29.7 in SE 2.9 mph 3.5 mph 50% 0 in CLR
07:24 59.7 °F 41 °F 29.7 in SE 2.9 mph   50% 0 in CLR
07:29 60.3 °F 41 °F 29.7 in South 1.4 mph 4.6 mph 49% 0 in CLR
07:34 60.6 °F 41.4 °F 29.7 in South 1.4 mph 5.8 mph 49% 0 in CLR
07:39 60.8 °F 42.1 °F 29.7 in SSW 3.1 mph 4.6 mph 50% 0 in CLR
07:44 61 °F 42.3 °F 29.7 in South 3.1 mph 4.6 mph 50% 0 in CLR
07:49 61.2 °F 42.4 °F 29.7 in South 2.9 mph 3.5 mph 50% 0 in CLR
07:54 61.3 °F 42.1 °F 29.7 in South 2.9 mph 2.9 mph 49% 0 in CLR
07:59 61.7 °F 43 °F 29.7 in SSE 2 mph 3.5 mph 50% 0 in CLR
08:04 62.1 °F 43.7 °F 29.7 in SSE 2 mph 2.9 mph 51% 0 in CLR
08:09 62.2 °F 44.4 °F 29.7 in SSE 1.8 mph 1.4 mph 52% 0 in CLR
08:14 62.4 °F 45.1 °F 29.7 in SSE 1.8 mph 2.3 mph 53% 0 in CLR
08:19 62.8 °F 45 °F 29.7 in NE 1.4 mph 2.3 mph 52% 0 in CLR
08:24 63 °F 44.1 °F 29.7 in NE 1.4 mph 2.3 mph 50% 0 in CLR
08:29 63 °F 44.1 °F 29.7 in NE 1.4 mph   50% 0 in CLR
08:34 63 °F 44.1 °F 29.7 in NNE 1.4 mph 3.5 mph 50% 0 in CLR
08:39 63 °F 44.1 °F 29.7 in NW 1.4 mph 3.5 mph 50% 0 in CLR
08:44 63 °F 44.4 °F 29.7 in NW 1.4 mph 4.6 mph 51% 0 in CLR
08:49 63 °F 45.1 °F 29.7 in NW 2 mph 2.3 mph 52% 0 in CLR
08:54 63.1 °F 44.2 °F 29.7 in West 2 mph 3.5 mph 50% 0 in CLR
08:59 63.3 °F 43.3 °F 29.7 in NW 2.4 mph 3.5 mph 48% 0 in CLR
09:04 63.7 °F 41.9 °F 29.8 in West 2.4 mph 4.6 mph 45% 0 in CLR
09:09 64 °F 41.2 °F 29.8 in West 2.9 mph 4.6 mph 43% 0 in CLR
09:14 64.8 °F 39.9 °F 29.8 in South 2.9 mph 5.8 mph 40% 0 in CLR
09:19 65.1 °F 40.3 °F 29.8 in SE 3.6 mph 4.6 mph 40% 0 in CLR
09:24 65.8 °F 40.8 °F 29.8 in SE 3.6 mph 4.7 mph 40% 0 in CLR
09:29 66 °F 39.7 °F 29.8 in SSE 3.1 mph 5.8 mph 38% 0 in CLR
09:34 66.2 °F 40.5 °F 29.8 in SW 3.1 mph 4.6 mph 39% 0 in CLR
09:39 66.4 °F 39.9 °F 29.8 in WSW 3.1 mph 4.6 mph 38% 0 in CLR
09:44 66.7 °F 40.3 °F 29.8 in SW 3.1 mph 4.6 mph 38% 0 in CLR
09:49 66.9 °F 39.7 °F 29.7 in WSW 2.4 mph 4.6 mph 37% 0 in CLR
09:54 67.5 °F 41 °F 29.7 in WSW 2.4 mph 2.9 mph 38% 0 in CLR
09:59 67.8 °F 40.6 °F 29.7 in SW 2.4 mph 4.6 mph 37% 0 in CLR
10:04 68.2 °F 40.8 °F 29.7 in WSW 2.4 mph 4.6 mph 37% 0 in CLR
10:09 68.5 °F 40.5 °F 29.7 in WSW 1.8 mph 4.6 mph 36% 0 in CLR
10:14 68.9 °F 40.8 °F 29.7 in WSW 1.8 mph 3.5 mph 36% 0 in CLR
10:19 69.6 °F 40.6 °F 29.7 in SSW 2 mph 5.2 mph 35% 0 in CLR
10:24 70 °F 40.3 °F 29.7 in WNW 2 mph 4.6 mph 34% 0 in CLR
10:29 69.8 °F 40.3 °F 29.7 in West 3.1 mph 8.1 mph 34% 0 in CLR
10:34 70.2 °F 39.7 °F 29.7 in SW 3.1 mph 8.7 mph 33% 0 in CLR
10:39 70.2 °F 38.8 °F 29.7 in WSW 5.2 mph 6.9 mph 32% 0 in CLR
10:44 70 °F 39.6 °F 29.7 in WSW 5.2 mph 8.1 mph 33% 0 in CLR
10:49 70 °F 39.6 °F 29.7 in WSW 4.7 mph 6.9 mph 33% 0 in CLR
10:54 69.6 °F 39.2 °F 29.7 in WSW 4.7 mph 6.9 mph 33% 0 in CLR
10:59 69.8 °F 39.4 °F 29.7 in NNW 4.7 mph 5.4 mph 33% 0 in CLR
11:04 70.2 °F 39.7 °F 29.7 in West 4.7 mph 5.8 mph 33% 0 in CLR
11:09 70.2 °F 38.8 °F 29.7 in SSW 3.1 mph 5.2 mph 32% 0 in CLR
11:14 70.5 °F 39.2 °F 29.7 in South 3.1 mph 3.1 mph 32% 0 in CLR
11:19 70.7 °F 39.4 °F 29.7 in WSW 2.9 mph 4.6 mph 32% 0 in CLR
11:24 70.9 °F 39.6 °F 29.7 in West 2.9 mph 6.9 mph 32% 0 in CLR
11:29 71.2 °F 39 °F 29.7 in NW 3.1 mph 3.5 mph 31% 0 in CLR
11:34 72 °F 39.7 °F 29.7 in ESE 3.1 mph 3.5 mph 31% 0 in CLR
11:39 72.7 °F 38.7 °F 29.7 in NNW 1.8 mph 10.4 mph 29% 0 in CLR
11:44 72.7 °F 38.7 °F 29.7 in SW 1.8 mph 6.9 mph 29% 0 in CLR
11:49 72.3 °F 38.3 °F 29.7 in SW 5.4 mph 8.1 mph 29% 0 in CLR
11:54 72.3 °F 38.3 °F 29.7 in NNW 5.4 mph 8.1 mph 29% 0 in CLR
11:59 72 °F 37.9 °F 29.7 in WNW 7.4 mph 8.1 mph 29% 0 in CLR
12:04 72.1 °F 38.1 °F 29.7 in SW 7.4 mph 15 mph 29% 0 in CLR
12:09 72.1 °F 38.1 °F 29.7 in South 6.4 mph 9.2 mph 29% 0 in CLR
12:14 72.5 °F 39.4 °F 29.7 in West 6.4 mph 11.5 mph 30% 0 in CLR
12:19 72.1 °F 39 °F 29.7 in WSW 6.4 mph 12.7 mph 30% 0 in CLR
12:24 72.3 °F 39 °F 29.7 in WNW 6.4 mph 10.4 mph 30% 0 in CLR
12:29 72.3 °F 39 °F 29.7 in NNW 6.4 mph 3.6 mph 30% 0 in CLR
12:34 72.7 °F 39.4 °F 29.7 in NW 6.4 mph 4.6 mph 30% 0 in CLR
12:39 72.7 °F 38.7 °F 29.7 in WNW 4.3 mph 6.9 mph 29% 0 in CLR
12:44 72.3 °F 39 °F 29.7 in NW 4.3 mph 4.6 mph 30% 0 in CLR
12:49 72.5 °F 38.5 °F 29.7 in North 5.2 mph 8.1 mph 29% 0 in CLR
12:54 72.7 °F 38.7 °F 29.7 in WNW 5.2 mph 12.7 mph 29% 0 in CLR
12:59 72.5 °F 39.4 °F 29.7 in West 4.7 mph 8.1 mph 30% 0 in CLR
13:04 73 °F 39.7 °F 29.7 in NW 4.7 mph 4.3 mph 30% 0 in CLR
13:09 73.6 °F 39.4 °F 29.7 in NW 3.6 mph 11.4 mph 29% 0 in CLR
13:14 73.4 °F 38.3 °F 29.7 in SW 3.6 mph 10.7 mph 28% 0 in CLR
13:19 73.2 °F 39 °F 29.7 in South 6.9 mph 10.4 mph 29% 0 in CLR
13:24 73.4 °F 39.2 °F 29.7 in WNW 6.9 mph 17.5 mph 29% 0 in CLR
13:29 73.6 °F 39.4 °F 29.7 in WNW 7.6 mph 12.7 mph 29% 0 in CLR
13:34 73.9 °F 38.8 °F 29.7 in WNW 7.6 mph 13.8 mph 28% 0 in CLR
13:39 73.4 °F 38.3 °F 29.7 in NW 7.4 mph 8.1 mph 28% 0 in CLR
13:44 73.4 °F 38.3 °F 29.7 in NW 7.4 mph 8.1 mph 28% 0 in CLR
13:49 73.8 °F 37.8 °F 29.7 in West 4.7 mph 10.4 mph 27% 0 in CLR
13:54 73.8 °F 38.7 °F 29.7 in West 4.7 mph 9.2 mph 28% 0 in CLR
13:59 73.8 °F 37.8 °F 29.7 in SE 5.9 mph 5.8 mph 27% 0 in CLR
14:04 73.6 °F 38.5 °F 29.7 in NNE 5.9 mph 10.4 mph 28% 0 in CLR
14:09 73.8 °F 37.8 °F 29.7 in WNW 5.2 mph 8.1 mph 27% 0 in CLR
14:14 73.8 °F 37.8 °F 29.7 in WSW 5.2 mph 10 mph 27% 0 in CLR
14:19 74.1 °F 37.9 °F 29.7 in WNW 6.2 mph 6.9 mph 27% 0 in CLR
14:24 74.5 °F 38.3 °F 29.7 in West 6.2 mph 18.4 mph 27% 0 in CLR
14:29 74.1 °F 37.9 °F 29.7 in NW 8.5 mph 11.5 mph 27% 0 in CLR
14:34 73.9 °F 37.8 °F 29.7 in ENE 8.5 mph 9.2 mph 27% 0 in CLR
14:39 73.8 °F 37.8 °F 29.7 in West 6.9 mph 4.6 mph 27% 0 in CLR
14:44 74.1 °F 37.9 °F 29.7 in WNW 6.9 mph 9.2 mph 27% 0 in CLR
14:49 74.5 °F 37.2 °F 29.7 in NNW 6.2 mph 8.1 mph 26% 0 in CLR
14:54 74.3 °F 38.1 °F 29.7 in NW 6.2 mph 10.4 mph 27% 0 in CLR
14:59 74.1 °F 37.9 °F 29.7 in WNW 6.4 mph 17.3 mph 27% 0 in CLR
15:04 73.9 °F 37.8 °F 29.7 in West 6.4 mph 8.1 mph 27% 0 in CLR
15:09 74.1 °F 37.9 °F 29.7 in NW 6.4 mph 6.2 mph 27% 0 in CLR
15:14 74.5 °F 37.2 °F 29.7 in NW 6.4 mph 8.1 mph 26% 0 in CLR
15:19 74.7 °F 37.6 °F 29.7 in WNW 4.3 mph 8.1 mph 26% 0 in CLR
15:24 74.5 °F 37.2 °F 29.7 in NNW 4.3 mph 7.6 mph 26% 0 in CLR
15:29 74.5 °F 37.2 °F 29.7 in NNW 5.9 mph 11.8 mph 26% 0 in CLR
15:34 74.3 °F 38.1 °F 29.7 in WNW 5.9 mph 10.4 mph 27% 0 in CLR
15:39 73.9 °F 36.9 °F 29.7 in WNW 8.7 mph 10.4 mph 26% 0 in CLR
15:44 73.9 °F 37.8 °F 29.7 in NW 8.7 mph 8.1 mph 27% 0 in CLR
15:49 73.9 °F 36.9 °F 29.7 in West 5.9 mph 4.6 mph 26% 0 in CLR
15:54 74.1 °F 37 °F 29.7 in WNW 5.9 mph 6.4 mph 26% 0 in CLR
15:57 74.1 °F 37 °F 29.7 in West 5.9 mph 4.6 mph 26% 0 in CLR
17:09 72.9 °F 50.9 °F 29.7 in East 4.7 mph 6.9 mph 46% 0 in CLR
17:14 72.1 °F 50.7 °F 29.7 in NE 4.7 mph 6.9 mph 47% 0 in CLR
17:19 72 °F 50 °F 29.7 in ESE 5.4 mph 6.9 mph 46% 0 in CLR
17:24 72.1 °F 48.9 °F 29.7 in ENE 5.4 mph 10.4 mph 44% 0 in CLR
17:29 72.3 °F 48.6 °F 29.7 in NNE 5.4 mph 4.6 mph 43% 0 in CLR
17:34 72.3 °F 48.6 °F 29.7 in NE 5.4 mph 5.2 mph 43% 0 in CLR
17:39 72.7 °F 48.4 °F 29.7 in NNE 4 mph 5.8 mph 42% 0 in CLR
17:44 72.9 °F 48.4 °F 29.7 in ENE 4 mph 9.2 mph 42% 0 in CLR
17:49 72.7 °F 48.4 °F 29.7 in ENE 5.2 mph 10.4 mph 42% 0 in CLR
17:54 72.7 °F 48.4 °F 29.7 in ENE 5.2 mph 6.9 mph 42% 0 in CLR
17:59 72.7 °F 49.5 °F 29.7 in ENE 4.3 mph 10.4 mph 44% 0 in CLR
18:04 72.3 °F 50.4 °F 29.7 in NE 4.3 mph 11.8 mph 46% 0 in CLR
18:09 72.1 °F 50.2 °F 29.7 in North 8.1 mph 12.7 mph 46% 0 in CLR
18:14 72 °F 51.8 °F 29.7 in NE 8.1 mph 11.5 mph 49% 0 in CLR
18:19 71.8 °F 52.7 °F 29.7 in NE 8.5 mph 12.3 mph 51% 0 in CLR
18:24 71.4 °F 52.3 °F 29.7 in NE 8.5 mph 10.4 mph 51% 0 in CLR
18:29 71.4 °F 52.9 °F 29.7 in NE 8.5 mph 11.5 mph 52% 0 in CLR
18:34 71.1 °F 54.1 °F 29.7 in NNE 8.5 mph 13 mph 55% 0 in CLR
18:39 70.5 °F 53.6 °F 29.7 in NE 9.7 mph 15 mph 55% 0 in CLR
18:44 70.7 °F 53.8 °F 29.7 in North 9.7 mph 11.5 mph 55% 0 in CLR
18:49 70.7 °F 51.1 °F 29.7 in NE 8.1 mph 12.7 mph 50% 0 in CLR
18:54 71.1 °F 52.5 °F 29.7 in NE 8.1 mph 12.7 mph 52% 0 in CLR
18:59 71.1 °F 54.1 °F 29.7 in East 8.1 mph 6.9 mph 55% 0 in CLR
19:04 70.9 °F 54.9 °F 29.7 in NE 8.1 mph 10.4 mph 57% 0 in CLR
19:09 70.3 °F 54 °F 29.7 in NE 6.9 mph 12.7 mph 56% 0 in CLR
19:14 70.5 °F 53.1 °F 29.7 in NE 6.9 mph 11.5 mph 54% 0 in CLR
19:19 70.7 °F 52.7 °F 29.7 in ENE 7.6 mph 8.1 mph 53% 0 in CLR
19:24 70.7 °F 54.7 °F 29.7 in ENE 7.6 mph 6.9 mph 57% 0 in CLR
19:29 70.5 °F 55 °F 29.7 in NNE 6.2 mph 11.4 mph 58% 0 in CLR
19:34 70.2 °F 53.8 °F 29.7 in NNE 6.2 mph 12.7 mph 56% 0 in CLR
19:39 70.3 °F 52.3 °F 29.7 in NE 8.7 mph 9.2 mph 53% 0 in CLR
19:44 70.5 °F 53.1 °F 29.7 in NE 8.7 mph 6.9 mph 54% 0 in CLR
19:49 70.5 °F 53.6 °F 29.7 in NE 6.2 mph 7.6 mph 55% 0 in CLR
19:54 70.3 °F 55.2 °F 29.7 in NNE 6.2 mph 12.7 mph 59% 0 in CLR
19:59 70.2 °F 56.1 °F 29.7 in NE 8.1 mph 11.5 mph 61% 0 in CLR
20:04 70 °F 56.5 °F 29.7 in NNE 8.1 mph 13 mph 62% 0 in CLR
20:09 69.6 °F 56.5 °F 29.7 in NNE 8.5 mph 13.8 mph 63% 0 in CLR
20:14 69.3 °F 56.1 °F 29.7 in NNE 8.5 mph 12.7 mph 63% 0 in CLR
20:19 69.3 °F 56.1 °F 29.7 in NE 8.7 mph 12.3 mph 63% 0 in CLR
20:24 68.9 °F 56.1 °F 29.7 in NE 8.7 mph 11.5 mph 64% 0 in CLR
20:29 68.7 °F 56.5 °F 29.7 in NE 8.7 mph 11.5 mph 65% 0 in CLR
20:34 68.4 °F 56.1 °F 29.7 in NE 8.7 mph 15 mph 65% 0 in CLR
20:39 68.4 °F 56.7 °F 29.7 in NNE 8.7 mph 10.4 mph 66% 0 in CLR
20:44 68 °F 56.7 °F 29.7 in NNE 8.7 mph 15.2 mph 67% 0 in CLR
20:49 67.6 °F 56.7 °F 29.7 in NE 9.2 mph 11.8 mph 68% 0 in CLR
20:54 67.5 °F 56.5 °F 29.7 in NE 9.2 mph 8.7 mph 68% 0 in CLR
20:59 67.3 °F 56.8 °F 29.7 in NW 8.1 mph 10.4 mph 69% 0 in CLR
21:04 66.7 °F 56.7 °F 29.8 in North 8.1 mph 12.7 mph 70% 0 in CLR
21:09 66.6 °F 56.8 °F 29.8 in NE 8.1 mph 8.7 mph 71% 0 in CLR
21:14 66.4 °F 56.7 °F 29.8 in NE 8.1 mph 10.4 mph 71% 0 in CLR
21:19 66.2 °F 56.8 °F 29.8 in NE 6.4 mph 10.7 mph 72% 0 in CLR
21:24 66 °F 57 °F 29.8 in NE 6.4 mph 10.4 mph 73% 0 in CLR
21:29 65.7 °F 56.8 °F 29.8 in NNE 7.4 mph 11.5 mph 73% 0 in CLR
21:34 65.7 °F 57 °F 29.8 in NE 7.4 mph 10 mph 74% 0 in CLR
21:39 65.3 °F 56.8 °F 29.8 in ENE 6.9 mph 10.7 mph 74% 0 in CLR
21:44 65.1 °F 57 °F 29.8 in NNE 6.9 mph 10.4 mph 75% 0 in CLR
21:49 64.9 °F 56.8 °F 29.8 in NE 8.1 mph 9.2 mph 75% 0 in CLR
21:54 64.8 °F 56.7 °F 29.8 in North 8.1 mph 9.2 mph 75% 0 in CLR
21:59 64.6 °F 56.5 °F 29.8 in North 8.1 mph 11.5 mph 75% 0 in CLR
22:04 64.4 °F 56.7 °F 29.8 in North 8.1 mph 11.8 mph 76% 0 in CLR
22:09 64.2 °F 56.5 °F 29.8 in ENE 8.7 mph 10.4 mph 76% 0 in CLR
22:14 64.2 °F 56.5 °F 29.8 in NE 8.7 mph 11.5 mph 76% 0 in CLR
22:19 64 °F 56.3 °F 29.8 in NNE 7.6 mph 13.8 mph 76% 0 in CLR
22:24 64 °F 56.3 °F 29.8 in NE 7.6 mph 8.1 mph 76% 0 in CLR
22:29 63.9 °F 56.5 °F 29.8 in NE 7.4 mph 10.4 mph 77% 0 in CLR
22:34 63.7 °F 56.3 °F 29.8 in NE 7.4 mph 10.4 mph 77% 0 in CLR
22:39 63.7 °F 56.3 °F 29.8 in NE 6.4 mph 9.2 mph 77% 0 in CLR
22:44 63.3 °F 56.3 °F 29.8 in NE 6.4 mph 9.2 mph 78% 0 in CLR
22:49 63.3 °F 56.3 °F 29.8 in NE 6.4 mph 9.2 mph 78% 0 in CLR
22:54 63.3 °F 56.3 °F 29.8 in NNE 6.4 mph 8.1 mph 78% 0 in CLR
22:59 63.1 °F 56.1 °F 29.8 in NE 6.4 mph 9.2 mph 78% 0 in CLR
23:04 63.1 °F 56.5 °F 29.8 in ENE 6.4 mph 8.1 mph 79% 0 in CLR
23:09 63 °F 56.3 °F 29.8 in NNE 6.4 mph 8.1 mph 79% 0 in CLR
23:14 63 °F 56.3 °F 29.8 in North 6.4 mph 5.8 mph 79% 0 in CLR
23:19 62.6 °F 56.3 °F 29.8 in ESE 4.7 mph 9.2 mph 80% 0 in CLR
23:24 62.8 °F 56.5 °F 29.8 in NE 4.7 mph 8.1 mph 80% 0 in CLR
23:29 62.8 °F 56.5 °F 29.8 in NE 5.9 mph 8.1 mph 80% 0 in CLR
23:34 62.6 °F 56.3 °F 29.8 in ENE 5.9 mph 6.9 mph 80% 0 in CLR
23:39 62.4 °F 56.1 °F 29.8 in NE 4.3 mph 5.8 mph 80% 0 in CLR
23:44 62.4 °F 56.1 °F 29.8 in NE 4.3 mph 4.7 mph 80% 0 in CLR
23:49 62.4 °F 56.1 °F 29.8 in NE 4 mph 3.5 mph 80% 0 in CLR
23:54 62.4 °F 56.1 °F 29.8 in NNW 4 mph 4.6 mph 80% 0 in CLR
23:59 62.4 °F 56.1 °F 29.8 in East 1.8 mph 3.1 mph 80% 0 in CLR
Murcia-Puente Tocinos, España
Compliments of Weather Underground - 2.75 mb

La estación de MeteoMurcia.com, publica sus datos en los siguientes proyectos:

Weather Underground PWS IMURCIAP2 Meteoclimatic www.awekas.at

W3Counter
Web Analytics